TAF Text Data
IDs:
Format:
Raw Decoded Include METAR

Data at: 2100 UTC 01 Oct 2022

KSLN 012053Z 12013KT 10SM CLR 28/07 A3008 RMK AO2 SLP176 T02830072 56016

KSLN 011738Z 0118/0218 15011KT P6SM FEW250
  FM020000 13007KT P6SM FEW250


KATW 012045Z 03007KT 10SM CLR 20/07 A3024

KATW 011722Z 0118/0218 05006KT P6SM SCT250
  FM020000 04005KT P6SM SCT100
  FM020400 05005KT P6SM BKN100
  FM020900 06005KT P6SM BKN080